createdAt,value
2019-01-31T00:01:05.286Z,43.42
2019-01-31T00:02:14.960Z,43.42
2019-01-31T00:03:24.884Z,43.52
2019-01-31T00:04:34.802Z,43.33
2019-01-31T00:05:44.228Z,42.38
2019-01-31T00:06:53.656Z,42
2019-01-31T00:08:03.333Z,41.53
2019-01-31T00:09:13.013Z,41.53
2019-01-31T00:10:22.430Z,42
2019-01-31T00:11:31.845Z,41.72
2019-01-31T00:12:41.514Z,43.33
2019-01-31T00:13:51.192Z,43.52
2019-01-31T00:15:00.872Z,43.61
2019-01-31T00:16:10.562Z,44.65
2019-01-31T00:17:20.491Z,44.27
2019-01-31T00:18:30.163Z,45.22
2019-01-31T00:19:39.576Z,45.12
2019-01-31T00:20:49.491Z,45.12
2019-01-31T00:21:58.653Z,46.55
2019-01-31T00:23:07.830Z,47.11
2019-01-31T00:24:17.246Z,46.73
2019-01-31T00:25:27.170Z,46.83
2019-01-31T00:26:36.340Z,47.2
2019-01-31T00:27:46.013Z,46.55
2019-01-31T00:28:55.674Z,46.55
2019-01-31T00:30:05.091Z,47.11
2019-01-31T00:31:15.014Z,48.15
2019-01-31T00:32:24.690Z,48.06
2019-01-31T00:33:33.863Z,47.49
2019-01-31T00:34:43.532Z,47.2
2019-01-31T00:35:53.441Z,47.11
2019-01-31T00:37:03.359Z,48.25
2019-01-31T00:38:13.283Z,47.11
2019-01-31T00:39:22.708Z,46.92
2019-01-31T00:40:32.129Z,46.45
2019-01-31T00:41:42.097Z,44.74
2019-01-31T00:42:51.017Z,44.56
2019-01-31T00:44:00.686Z,44.56
2019-01-31T00:45:10.355Z,44.46
2019-01-31T00:46:19.524Z,45.03
2019-01-31T00:47:29.456Z,45.22
2019-01-31T00:48:39.369Z,46.17
2019-01-31T00:49:48.790Z,46.36
2019-01-31T00:50:58.204Z,46.36
2019-01-31T00:52:07.630Z,46.55
2019-01-31T00:53:17.318Z,47.2
2019-01-31T00:54:26.989Z,46.83
2019-01-31T00:55:36.502Z,45.31
2019-01-31T00:56:45.920Z,45.22
2019-01-31T00:57:55.343Z,44.74
2019-01-31T00:59:04.758Z,45.98
2019-01-31T01:00:14.683Z,45.6
2019-01-31T01:01:24.371Z,45.5
2019-01-31T01:02:34.045Z,45.22
2019-01-31T01:03:44.032Z,45.41
2019-01-31T01:04:53.706Z,45.6
2019-01-31T01:06:03.623Z,45.12
2019-01-31T01:07:13.287Z,44.74
2019-01-31T01:08:22.952Z,44.56
2019-01-31T01:09:32.369Z,43.71
2019-01-31T01:10:42.281Z,43.52
2019-01-31T01:11:51.954Z,44.46
2019-01-31T01:13:01.883Z,44.46
2019-01-31T01:14:11.553Z,44.37
2019-01-31T01:15:21.221Z,44.65
2019-01-31T01:16:30.891Z,45.22
2019-01-31T01:17:40.842Z,44.46
2019-01-31T01:18:50.761Z,44.46
2019-01-31T01:20:00.693Z,44.09
2019-01-31T01:21:10.112Z,44.09
2019-01-31T01:22:19.533Z,42.85
2019-01-31T01:23:28.947Z,41.53
2019-01-31T01:24:38.869Z,42.1
2019-01-31T01:25:48.788Z,42
2019-01-31T01:26:58.707Z,42.19
2019-01-31T01:28:07.878Z,42.38
2019-01-31T01:29:17.552Z,41.63
2019-01-31T01:30:27.471Z,42.19
2019-01-31T01:31:36.891Z,41.72
2019-01-31T01:32:46.564Z,41.15
2019-01-31T01:33:56.483Z,41.44
2019-01-31T01:35:06.417Z,42.57
2019-01-31T01:36:16.330Z,42.47
2019-01-31T01:37:25.754Z,42.85
2019-01-31T01:38:35.198Z,44.37
2019-01-31T01:39:44.871Z,44.09
2019-01-31T01:40:54.539Z,43.71
2019-01-31T01:42:04.205Z,43.52
2019-01-31T01:43:14.124Z,44.37
2019-01-31T01:44:23.904Z,43.71
2019-01-31T01:45:33.814Z,42.95
2019-01-31T01:46:43.492Z,43.71
2019-01-31T01:47:53.410Z,43.42
2019-01-31T01:49:03.325Z,43.33
2019-01-31T01:50:12.992Z,42.95
2019-01-31T01:51:22.175Z,42.57
2019-01-31T01:52:31.949Z,42.85
2019-01-31T01:53:41.615Z,42.76
2019-01-31T01:54:51.032Z,43.14
2019-01-31T01:55:59.972Z,42.85
2019-01-31T01:57:09.913Z,42.85
2019-01-31T01:58:19.582Z,42.85
2019-01-31T01:59:29.009Z,42.19
2019-01-31T02:00:38.691Z,41.53
2019-01-31T02:01:48.615Z,41.63
2019-01-31T02:02:58.294Z,41.25
2019-01-31T02:04:07.715Z,41.72
2019-01-31T02:05:17.633Z,41.72
2019-01-31T02:06:26.805Z,41.63
2019-01-31T02:07:36.096Z,42.66
2019-01-31T02:08:46.017Z,42.57
2019-01-31T02:09:55.686Z,42.95
2019-01-31T02:11:05.528Z,43.04
2019-01-31T02:12:15.212Z,42.95
2019-01-31T02:13:25.139Z,43.61
2019-01-31T02:14:35.059Z,43.61
2019-01-31T02:15:44.484Z,43.14
2019-01-31T02:16:54.087Z,41.44
2019-01-31T02:18:03.760Z,41.63
2019-01-31T02:19:13.428Z,42.47
2019-01-31T02:20:22.840Z,44.09
2019-01-31T02:21:32.770Z,44.65
2019-01-31T02:22:42.692Z,45.03
2019-01-31T02:23:52.126Z,45.03
2019-01-31T02:25:01.539Z,44.56
2019-01-31T02:26:11.215Z,43.71
2019-01-31T02:27:20.642Z,43.23
2019-01-31T02:28:30.062Z,43.99
2019-01-31T02:29:39.729Z,43.61
2019-01-31T02:30:48.902Z,43.04
2019-01-31T02:31:58.818Z,43.42
2019-01-31T02:33:08.491Z,43.8
2019-01-31T02:34:18.021Z,43.8
2019-01-31T02:35:27.706Z,43.61
2019-01-31T02:36:37.641Z,44.56
2019-01-31T02:37:47.567Z,46.36
2019-01-31T02:38:57.027Z,48.63
2019-01-31T02:40:06.447Z,48.63
2019-01-31T02:41:15.870Z,48.06
2019-01-31T02:42:25.425Z,46.55
2019-01-31T02:43:35.100Z,47.96
2019-01-31T02:44:45.028Z,48.06
2019-01-31T02:45:54.719Z,48.34
2019-01-31T02:47:04.653Z,47.68
2019-01-31T02:48:14.331Z,46.83
2019-01-31T02:49:24.257Z,47.02
2019-01-31T02:50:34.177Z,47.58
2019-01-31T02:51:44.121Z,48.15
2019-01-31T02:52:53.797Z,48.34
2019-01-31T02:54:03.717Z,48.63
2019-01-31T02:55:13.645Z,49.19
2019-01-31T02:56:25.859Z,49.76
2019-01-31T02:57:35.742Z,50.33
2019-01-31T02:58:45.423Z,49.48
2019-01-31T02:59:55.354Z,49.01
2019-01-31T03:01:05.047Z,49.1
2019-01-31T03:02:14.738Z,48.91
2019-01-31T03:03:24.659Z,52.03
2019-01-31T03:04:34.086Z,52.12
2019-01-31T03:05:43.766Z,51.93
2019-01-31T03:06:53.722Z,51.37
2019-01-31T03:08:03.159Z,51.84
2019-01-31T03:09:12.842Z,52.12
2019-01-31T03:10:22.266Z,51.84
2019-01-31T03:11:31.697Z,51.56
2019-01-31T03:12:41.440Z,51.65
2019-01-31T03:13:50.856Z,52.6
2019-01-31T03:15:12.472Z,52.41
2019-01-31T03:16:22.288Z,52.31
2019-01-31T03:17:31.966Z,51.75
2019-01-31T03:18:41.633Z,52.22
2019-01-31T03:19:51.081Z,52.22
2019-01-31T03:21:00.506Z,53.17
2019-01-31T03:22:10.198Z,53.07
2019-01-31T03:23:19.874Z,51.84
2019-01-31T03:24:29.549Z,52.79
2019-01-31T03:25:39.224Z,52.79
2019-01-31T03:26:49.140Z,52.88
2019-01-31T03:27:58.821Z,53.36
2019-01-31T03:29:08.528Z,52.88
2019-01-31T03:30:18.483Z,52.6
2019-01-31T03:31:32.196Z,52.03
2019-01-31T03:32:42.140Z,52.03
2019-01-31T03:33:51.853Z,52.03
2019-01-31T03:35:01.527Z,52.79
2019-01-31T03:36:11.226Z,52.69
2019-01-31T03:37:20.401Z,51.46
2019-01-31T03:38:30.080Z,51.93
2019-01-31T03:39:40.031Z,51.93
2019-01-31T03:40:49.448Z,51.56
2019-01-31T03:41:58.874Z,52.12
2019-01-31T03:43:08.800Z,51.75
2019-01-31T03:44:18.222Z,53.55
2019-01-31T03:45:28.149Z,52.22
2019-01-31T03:46:37.319Z,52.5
2019-01-31T03:47:47.034Z,53.07
2019-01-31T03:48:56.966Z,52.69
2019-01-31T03:50:09.311Z,52.88
2019-01-31T03:51:19.045Z,51.93
2019-01-31T03:52:28.722Z,51.75
2019-01-31T03:53:38.444Z,51.93
2019-01-31T03:54:47.865Z,51.09
2019-01-31T03:55:57.292Z,50.71
2019-01-31T03:57:07.225Z,51.09
2019-01-31T03:58:16.911Z,51.18
2019-01-31T03:59:26.866Z,50.33
2019-01-31T04:00:36.574Z,51.09
2019-01-31T04:01:46.535Z,51.75
2019-01-31T04:02:56.581Z,51.28
2019-01-31T04:04:06.256Z,51.37
2019-01-31T04:05:16.203Z,51.18
2019-01-31T04:06:26.126Z,49.19
2019-01-31T04:07:35.818Z,49.76
2019-01-31T04:08:45.368Z,48.82
2019-01-31T04:09:55.309Z,49.01
2019-01-31T04:11:04.804Z,49.01
2019-01-31T04:12:13.738Z,48.25
2019-01-31T04:13:23.444Z,48.53
2019-01-31T04:14:32.871Z,48.06
2019-01-31T04:15:42.793Z,48.44
2019-01-31T04:16:52.718Z,47.77
2019-01-31T04:18:02.397Z,48.44
2019-01-31T04:19:12.367Z,48.44
2019-01-31T04:20:22.112Z,48.53
2019-01-31T04:21:31.792Z,48.53
2019-01-31T04:22:41.464Z,48.44
2019-01-31T04:23:50.891Z,48.34
2019-01-31T04:25:00.818Z,48.06
2019-01-31T04:26:10.757Z,47.58
2019-01-31T04:27:20.436Z,47.2
2019-01-31T04:28:33.150Z,47.11
2019-01-31T04:29:42.329Z,45.79
2019-01-31T04:30:52.397Z,44.74
2019-01-31T04:32:01.821Z,43.9
2019-01-31T04:33:11.513Z,42.95
2019-01-31T04:34:20.943Z,41.53
2019-01-31T04:35:30.648Z,41.06
2019-01-31T04:36:40.682Z,40.01
2019-01-31T04:37:50.356Z,39.07
2019-01-31T04:39:00.042Z,38.69
2019-01-31T04:40:09.823Z,37.74
2019-01-31T04:41:19.493Z,37.18
2019-01-31T04:42:28.917Z,36.52
2019-01-31T04:43:38.607Z,36.23
2019-01-31T04:44:48.290Z,35.38
2019-01-31T04:45:58.221Z,34.06
2019-01-31T04:47:08.210Z,33.2
2019-01-31T04:48:17.898Z,32.35
2019-01-31T04:49:27.582Z,31.6
2019-01-31T04:50:37.252Z,31.79
2019-01-31T04:51:46.673Z,31.69
2019-01-31T04:52:56.347Z,31.79
2019-01-31T04:54:06.025Z,31.31
2019-01-31T04:55:15.716Z,31.03
2019-01-31T04:56:25.711Z,30.27
2019-01-31T04:57:35.152Z,29.42
2019-01-31T04:58:44.573Z,29.04
2019-01-31T04:59:54.511Z,28.09
2019-01-31T05:01:04.450Z,28.09
2019-01-31T05:02:14.132Z,28
2019-01-31T05:03:23.562Z,27.44
2019-01-31T05:04:32.483Z,27.34
2019-01-31T05:05:42.417Z,27.53
2019-01-31T05:06:52.099Z,28.19
2019-01-31T05:08:01.782Z,28.28
2019-01-31T05:09:11.752Z,28.38
2019-01-31T05:10:21.178Z,28.19
2019-01-31T05:11:30.852Z,28.19
2019-01-31T05:12:40.655Z,28.28
2019-01-31T05:13:50.583Z,28.09
2019-01-31T05:15:00.006Z,28.28
2019-01-31T05:16:09.688Z,29.04
2019-01-31T05:17:19.605Z,28.76
2019-01-31T05:18:29.416Z,29.23
2019-01-31T05:19:39.338Z,29.71
2019-01-31T05:20:49.011Z,30.85
2019-01-31T05:21:58.845Z,31.52
2019-01-31T05:23:08.534Z,31.98
2019-01-31T05:24:18.212Z,32.26
2019-01-31T05:25:27.915Z,33.22
2019-01-31T05:26:37.357Z,33.01
2019-01-31T05:27:47.029Z,34.25
2019-01-31T05:28:56.956Z,33.49
2019-01-31T05:30:06.883Z,33.2
2019-01-31T05:31:16.814Z,32.45
2019-01-31T05:32:26.513Z,33.41
2019-01-31T05:33:36.453Z,34.64
2019-01-31T05:34:46.280Z,34.64
2019-01-31T05:35:55.944Z,34.74
2019-01-31T05:37:05.865Z,35.1
2019-01-31T05:38:17.357Z,36.15
2019-01-31T05:39:27.505Z,36.8
2019-01-31T05:40:37.439Z,37.19
2019-01-31T05:41:58.360Z,37.95
2019-01-31T05:43:08.081Z,38.88
2019-01-31T05:44:17.502Z,39.17
2019-01-31T05:45:27.181Z,38.69
2019-01-31T05:46:36.618Z,38.79
2019-01-31T05:47:46.286Z,38.98
2019-01-31T05:48:55.972Z,39
2019-01-31T05:50:05.891Z,39.75
2019-01-31T05:51:15.820Z,39.47
2019-01-31T05:52:25.491Z,39.84
2019-01-31T05:53:35.426Z,39.73
2019-01-31T05:54:45.357Z,40.2
2019-01-31T05:55:54.787Z,41.27
2019-01-31T05:57:04.817Z,41.83
2019-01-31T05:58:14.250Z,41.17
2019-01-31T05:59:23.919Z,41.08
2019-01-31T06:00:33.847Z,42.57
2019-01-31T06:01:43.518Z,42.4
2019-01-31T06:02:53.408Z,42.11
2019-01-31T06:04:03.115Z,43.16
2019-01-31T06:05:13.052Z,43.23
2019-01-31T06:06:22.492Z,42.3
2019-01-31T06:07:31.928Z,42.11
2019-01-31T06:08:41.350Z,43.63
2019-01-31T06:09:50.832Z,44.1
2019-01-31T06:11:10.030Z,43.44
2019-01-31T06:12:19.958Z,43.63
2019-01-31T06:13:29.282Z,44.58
2019-01-31T06:14:38.458Z,44.58
2019-01-31T06:15:48.379Z,44.96
2019-01-31T06:16:58.320Z,44.86
2019-01-31T06:18:08.246Z,44.77
2019-01-31T06:19:18.292Z,44.46
2019-01-31T06:20:28.014Z,45.15
2019-01-31T06:21:37.741Z,45.34
2019-01-31T06:22:47.776Z,45.81
2019-01-31T06:23:57.463Z,46.45
2019-01-31T06:25:06.711Z,46.56
2019-01-31T06:26:16.148Z,47.11
2019-01-31T06:27:25.824Z,48.84
2019-01-31T06:28:35.370Z,48.91
2019-01-31T06:29:45.040Z,48.91
2019-01-31T06:30:54.837Z,48.65
2019-01-31T06:32:04.519Z,49.01
2019-01-31T06:33:14.204Z,49.38
2019-01-31T06:34:24.134Z,49.1
2019-01-31T06:35:34.092Z,49.31
2019-01-31T06:36:43.769Z,49.88
2019-01-31T06:37:53.189Z,50.35
2019-01-31T06:39:02.617Z,49.69
2019-01-31T06:40:12.286Z,51.11
2019-01-31T06:41:21.956Z,51.2
2019-01-31T06:42:31.621Z,50.26
2019-01-31T06:43:41.048Z,52.15
2019-01-31T06:44:50.748Z,52.15
2019-01-31T06:46:00.677Z,51.96
2019-01-31T06:47:10.096Z,51.65
2019-01-31T06:48:19.781Z,51.75
2019-01-31T06:49:29.456Z,52.72
2019-01-31T06:50:39.371Z,52.15
2019-01-31T06:51:49.298Z,52.34
2019-01-31T06:53:00.674Z,52.15
2019-01-31T06:54:10.102Z,53.09
2019-01-31T06:55:19.782Z,53.09
2019-01-31T06:56:28.950Z,53.19
2019-01-31T06:57:38.872Z,53.57
2019-01-31T06:58:48.545Z,54.14
2019-01-31T06:59:58.245Z,54.11
2019-01-31T07:01:07.916Z,54.49
2019-01-31T07:02:17.342Z,54.14
2019-01-31T07:03:27.277Z,54.21
2019-01-31T07:04:36.702Z,54.68
2019-01-31T07:05:46.375Z,54.8
2019-01-31T07:06:55.805Z,54.99
2019-01-31T07:08:07.253Z,56.13
2019-01-31T07:09:16.924Z,56.03
2019-01-31T07:10:26.854Z,55.56
2019-01-31T07:11:37.362Z,54.9
2019-01-31T07:12:47.285Z,55.84
2019-01-31T07:13:56.715Z,56.41
2019-01-31T07:15:06.391Z,56.51
2019-01-31T07:16:16.069Z,57.45
2019-01-31T07:17:25.983Z,56.98
2019-01-31T07:18:35.648Z,57.04
2019-01-31T07:19:45.316Z,57.54
2019-01-31T07:20:54.990Z,57.92
2019-01-31T07:22:04.679Z,57.99
2019-01-31T07:23:14.394Z,57.92
2019-01-31T07:24:24.328Z,57.99
2019-01-31T07:25:34.002Z,59.34
2019-01-31T07:26:43.814Z,58.97
2019-01-31T07:27:53.354Z,59.91
2019-01-31T07:29:03.143Z,59.31
2019-01-31T07:30:12.573Z,58.68
2019-01-31T07:31:22.242Z,58.94
2019-01-31T07:32:31.911Z,59.16
2019-01-31T07:33:41.610Z,59.22
2019-01-31T07:34:51.307Z,59.81
2019-01-31T07:36:01.227Z,59.34
2019-01-31T07:37:10.933Z,58.94
2019-01-31T07:38:20.970Z,59.69
2019-01-31T07:39:30.660Z,59.06
2019-01-31T07:40:40.332Z,59.12
2019-01-31T07:41:50.252Z,60.26
2019-01-31T07:43:00.176Z,60.38
2019-01-31T07:44:09.957Z,59.88
2019-01-31T07:45:19.960Z,60.48
2019-01-31T07:46:29.893Z,60.17
2019-01-31T07:47:39.314Z,60.55
2019-01-31T07:48:48.738Z,60.55
2019-01-31T07:49:58.155Z,60.17
2019-01-31T07:51:07.070Z,61.33
2019-01-31T07:52:16.741Z,61.11
2019-01-31T07:53:26.156Z,61.8
2019-01-31T07:54:35.828Z,62.25
2019-01-31T07:55:45.258Z,62.37
2019-01-31T07:56:54.928Z,61.9
2019-01-31T07:58:04.855Z,61.96
2019-01-31T07:59:14.623Z,61.96
2019-01-31T08:00:24.662Z,62.85
2019-01-31T08:01:34.334Z,62.28
2019-01-31T08:02:46.176Z,62.56
2019-01-31T08:04:05.039Z,61.61
2019-01-31T08:05:14.963Z,61.61
2019-01-31T08:06:24.630Z,61.52
2019-01-31T08:07:34.052Z,62.18
2019-01-31T08:08:43.727Z,62.47
2019-01-31T08:09:56.012Z,63.42
2019-01-31T08:11:06.051Z,64.26
2019-01-31T08:12:15.989Z,64.07
2019-01-31T08:13:25.425Z,63.79
2019-01-31T08:14:34.856Z,63.23
2019-01-31T08:15:44.635Z,63.32
2019-01-31T08:16:54.562Z,62.18
2019-01-31T08:18:04.246Z,63.42
2019-01-31T08:19:15.713Z,64.55
2019-01-31T08:20:25.637Z,63.42
2019-01-31T08:21:35.317Z,62.85
2019-01-31T08:22:46.432Z,63.13
2019-01-31T08:23:56.355Z,62.94
2019-01-31T08:25:06.038Z,63.42
2019-01-31T08:26:15.961Z,63.51
2019-01-31T08:27:25.634Z,62.56
2019-01-31T08:28:35.317Z,63.04
2019-01-31T08:29:44.990Z,64.07
2019-01-31T08:30:54.166Z,65.5
2019-01-31T08:32:04.085Z,64.64
2019-01-31T08:33:13.510Z,64.64
2019-01-31T08:34:23.438Z,64.17
2019-01-31T08:35:33.105Z,63.79
2019-01-31T08:36:42.887Z,66.06
2019-01-31T08:37:52.346Z,66.06
2019-01-31T08:39:02.271Z,65.88
2019-01-31T08:40:11.945Z,66.06
2019-01-31T08:41:21.878Z,68.24
2019-01-31T08:42:31.806Z,67.77
2019-01-31T08:43:41.478Z,68.9
2019-01-31T08:44:53.970Z,68.24
2019-01-31T08:46:03.397Z,69.95
2019-01-31T08:47:12.828Z,69.19
2019-01-31T08:48:22.628Z,68.9
2019-01-31T08:49:31.948Z,69.57
2019-01-31T08:50:41.882Z,69.95
2019-01-31T08:51:51.555Z,69.57
2019-01-31T08:53:00.979Z,70.7
2019-01-31T08:54:10.403Z,70.61
2019-01-31T08:55:19.574Z,70.51
2019-01-31T08:56:29.512Z,70.61
2019-01-31T08:57:38.942Z,70.98
2019-01-31T08:58:50.094Z,70.42
2019-01-31T08:59:59.770Z,70.14
2019-01-31T09:01:09.455Z,70.7
2019-01-31T09:02:19.388Z,70.61
2019-01-31T09:03:29.323Z,70.23
2019-01-31T09:04:38.750Z,69.09
2019-01-31T09:05:48.670Z,69.47
2019-01-31T09:06:58.341Z,69
2019-01-31T09:08:07.522Z,69.09
2019-01-31T09:09:17.202Z,69.19
2019-01-31T09:10:26.127Z,69.57
2019-01-31T09:11:35.552Z,69.66
2019-01-31T09:12:45.252Z,69.85
2019-01-31T09:13:54.921Z,69.09
2019-01-31T09:15:04.872Z,69.85
2019-01-31T09:16:14.307Z,68.62
2019-01-31T09:17:23.733Z,69.19
2019-01-31T09:18:33.164Z,68.62
2019-01-31T09:19:43.090Z,67.68
2019-01-31T09:20:52.881Z,68.43
2019-01-31T09:22:02.866Z,68.05
2019-01-31T09:23:12.044Z,67.86
2019-01-31T09:24:21.759Z,68.15
2019-01-31T09:25:31.434Z,67.58
2019-01-31T09:26:41.115Z,67.58
2019-01-31T09:27:50.565Z,67.39
2019-01-31T09:28:59.988Z,67.86
2019-01-31T09:30:09.667Z,67.86
2019-01-31T09:31:22.093Z,68.62
2019-01-31T09:32:32.025Z,68.33
2019-01-31T09:33:41.943Z,69.47
2019-01-31T09:34:51.406Z,68.15
2019-01-31T09:36:01.329Z,69.76
2019-01-31T09:37:11.003Z,72.12
2019-01-31T09:38:20.429Z,71.46
2019-01-31T09:39:30.109Z,72.12
2019-01-31T09:40:39.784Z,71.36
2019-01-31T09:41:49.459Z,71.55
2019-01-31T09:42:58.635Z,71.93
2019-01-31T09:44:08.057Z,72.31
2019-01-31T09:45:17.731Z,73.26
2019-01-31T09:46:27.151Z,74.21
2019-01-31T09:47:37.079Z,73.83
2019-01-31T09:48:47.138Z,73.16
2019-01-31T09:49:56.317Z,72.5
2019-01-31T09:51:05.995Z,73.26
2019-01-31T09:52:15.674Z,73.26
2019-01-31T09:53:25.600Z,73.26
2019-01-31T09:54:35.323Z,73.35
2019-01-31T09:55:44.748Z,72.22
2019-01-31T09:56:54.446Z,72.22
2019-01-31T09:58:04.120Z,73.16
2019-01-31T09:59:13.794Z,72.69
2019-01-31T10:00:30.250Z,72.69
2019-01-31T10:01:39.928Z,73.26
2019-01-31T10:02:49.116Z,73.07
2019-01-31T10:03:58.055Z,72.12
2019-01-31T10:05:07.481Z,72.22
2019-01-31T10:06:17.406Z,72.22
2019-01-31T10:07:27.088Z,72.31
2019-01-31T10:08:36.266Z,72.22
2019-01-31T10:09:46.188Z,72.12
2019-01-31T10:10:55.883Z,70.98
2019-01-31T10:12:05.770Z,71.55
2019-01-31T10:13:15.533Z,71.65
2019-01-31T10:14:25.817Z,71.36
2019-01-31T10:15:35.846Z,72.31
2019-01-31T10:16:46.907Z,71.08
2019-01-31T10:17:56.715Z,71.36
2019-01-31T10:19:06.614Z,71.74
2019-01-31T10:20:17.190Z,71.65
2019-01-31T10:21:28.617Z,71.08
2019-01-31T10:22:38.974Z,70.42
2019-01-31T10:23:49.028Z,71.17
2019-01-31T10:24:59.276Z,71.74
2019-01-31T10:26:09.081Z,71.84
2019-01-31T10:27:18.760Z,72.22
2019-01-31T10:28:28.436Z,74.21
2019-01-31T10:29:38.371Z,73.54
2019-01-31T10:30:48.048Z,73.45
2019-01-31T10:31:57.480Z,72.5
2019-01-31T10:33:07.160Z,72.22
2019-01-31T10:34:16.336Z,70.79
2019-01-31T10:35:27.662Z,72.31
2019-01-31T10:36:37.348Z,72.12
2019-01-31T10:37:46.521Z,72.12
2019-01-31T10:38:57.187Z,73.54
2019-01-31T10:40:06.614Z,72.6
2019-01-31T10:41:16.285Z,75.34
2019-01-31T10:42:25.798Z,75.81
2019-01-31T10:43:34.732Z,74.77
2019-01-31T10:44:44.652Z,74.58
2019-01-31T10:45:54.674Z,74.77
2019-01-31T10:47:04.603Z,75.05
2019-01-31T10:48:14.032Z,74.49
2019-01-31T10:49:23.204Z,74.68
2019-01-31T10:50:32.630Z,74.77
2019-01-31T10:51:42.300Z,74.96
2019-01-31T10:52:51.976Z,74.58
2019-01-31T10:54:01.429Z,74.21
2019-01-31T10:55:10.858Z,73.64
2019-01-31T10:56:20.530Z,72.88
2019-01-31T10:57:30.201Z,73.45
2019-01-31T10:58:40.128Z,73.83
2019-01-31T10:59:49.555Z,72.5
2019-01-31T11:00:58.980Z,72.41
2019-01-31T11:02:08.908Z,73.26
2019-01-31T11:03:18.834Z,73.45
2019-01-31T11:04:28.265Z,75.72
2019-01-31T11:05:37.947Z,75.62
2019-01-31T11:06:47.871Z,74.49
2019-01-31T11:07:59.514Z,74.87
2019-01-31T11:09:09.665Z,75.24
2019-01-31T11:10:18.848Z,74.58
2019-01-31T11:11:28.281Z,74.68
2019-01-31T11:12:37.274Z,74.87
2019-01-31T11:13:46.446Z,74.68
2019-01-31T11:14:56.123Z,74.96
2019-01-31T11:16:05.808Z,73.64
2019-01-31T11:17:15.484Z,72.78
2019-01-31T11:18:25.411Z,73.83
2019-01-31T11:19:35.129Z,74.11
2019-01-31T11:20:44.800Z,74.02
2019-01-31T11:21:54.728Z,73.54
2019-01-31T11:23:04.403Z,74.21
2019-01-31T11:24:14.324Z,74.02
2019-01-31T11:25:23.995Z,75.15
2019-01-31T11:26:33.664Z,74.77
2019-01-31T11:27:43.136Z,74.58
2019-01-31T11:28:52.822Z,74.68
2019-01-31T11:30:02.734Z,73.73
2019-01-31T11:31:12.783Z,73.07
2019-01-31T11:32:22.209Z,74.11
2019-01-31T11:33:31.641Z,73.35
2019-01-31T11:34:41.313Z,73.92
2019-01-31T11:35:50.995Z,74.58
2019-01-31T11:37:00.993Z,74.02
2019-01-31T11:38:10.676Z,74.4
2019-01-31T11:39:20.471Z,74.58
2019-01-31T11:40:30.150Z,74.21
2019-01-31T11:41:40.108Z,73.92
2019-01-31T11:42:50.026Z,74.11
2019-01-31T11:43:59.699Z,73.54
2019-01-31T11:45:09.468Z,74.3
2019-01-31T11:46:19.392Z,73.83
2019-01-31T11:47:28.817Z,74.4
2019-01-31T11:48:38.498Z,74.68
2019-01-31T11:49:49.895Z,74.68
2019-01-31T11:50:59.946Z,74.11
2019-01-31T11:52:09.760Z,74.96
2019-01-31T11:53:19.435Z,74.87
2019-01-31T11:54:28.865Z,75.76
2019-01-31T11:55:38.789Z,77.27
2019-01-31T11:56:48.226Z,76.61
2019-01-31T11:58:08.225Z,76.8
2019-01-31T11:59:17.901Z,75.95
2019-01-31T12:00:27.604Z,77.08
2019-01-31T12:01:37.532Z,77.08
2019-01-31T12:02:57.494Z,77.56
2019-01-31T12:04:07.417Z,77.94
2019-01-31T12:05:17.083Z,78.03
2019-01-31T12:06:27.013Z,78.31
2019-01-31T12:07:39.031Z,78.98
2019-01-31T12:08:47.949Z,78.03
2019-01-31T12:09:58.053Z,78.88
2019-01-31T12:11:07.973Z,79.45
2019-01-31T12:12:17.642Z,79.45
2019-01-31T12:13:27.066Z,79.17
2019-01-31T12:14:36.253Z,79.26
2019-01-31T12:15:45.685Z,78.98
2019-01-31T12:16:55.605Z,80.11
2019-01-31T12:18:05.282Z,79.64
2019-01-31T12:19:14.971Z,78.69
2019-01-31T12:20:24.762Z,79.17
2019-01-31T12:21:33.942Z,78.98
2019-01-31T12:22:43.130Z,80.11
2019-01-31T12:23:53.057Z,80.3
2019-01-31T12:25:02.765Z,80.4
2019-01-31T12:26:13.986Z,80.02
2019-01-31T12:27:24.062Z,80.3
2019-01-31T12:28:33.492Z,80.3
2019-01-31T12:29:43.418Z,79.64
2019-01-31T12:30:53.370Z,80.82
2019-01-31T12:32:02.655Z,81.1
2019-01-31T12:33:12.080Z,80.44
2019-01-31T12:34:21.753Z,81.48
2019-01-31T12:35:31.187Z,81.57
2019-01-31T12:36:41.135Z,80.91
2019-01-31T12:37:51.096Z,81.29
2019-01-31T12:39:00.586Z,81.38
2019-01-31T12:40:10.275Z,82.24
2019-01-31T12:41:19.949Z,81.86
2019-01-31T12:42:29.880Z,81.95
2019-01-31T12:43:39.312Z,82.24
2019-01-31T12:44:48.238Z,81.76
2019-01-31T12:45:57.913Z,82.62
2019-01-31T12:47:07.835Z,82.24
2019-01-31T12:48:17.017Z,82.24
2019-01-31T12:49:26.701Z,82.9
2019-01-31T12:50:36.629Z,82.71
2019-01-31T12:51:46.053Z,83
2019-01-31T12:52:55.477Z,83.09
2019-01-31T12:54:05.164Z,83
2019-01-31T12:55:14.087Z,83.47
2019-01-31T12:56:23.764Z,83.28
2019-01-31T12:57:33.193Z,83.18
2019-01-31T12:58:42.868Z,82.81
2019-01-31T12:59:52.549Z,83.09
2019-01-31T13:01:02.223Z,82.71
2019-01-31T13:02:12.150Z,83.56
2019-01-31T13:03:21.580Z,83.66
2019-01-31T13:04:31.059Z,84.42
2019-01-31T13:05:40.760Z,85.17
2019-01-31T13:06:50.539Z,85.55
2019-01-31T13:07:59.964Z,85.17
2019-01-31T13:09:09.141Z,85.17
2019-01-31T13:10:18.837Z,86.41
2019-01-31T13:11:28.288Z,86.22
2019-01-31T13:12:48.248Z,85.93
2019-01-31T13:13:58.008Z,86.03
2019-01-31T13:15:07.680Z,86.22
2019-01-31T13:16:17.357Z,86.6
2019-01-31T13:17:27.284Z,87.64
2019-01-31T13:18:36.705Z,88.68
2019-01-31T13:19:46.381Z,87.92
2019-01-31T13:20:56.068Z,89.15
2019-01-31T13:22:05.754Z,88.96
2019-01-31T13:23:15.179Z,88.3
2019-01-31T13:24:24.861Z,88.87
2019-01-31T13:25:34.792Z,89.15
2019-01-31T13:26:44.734Z,89.06
2019-01-31T13:27:54.162Z,88.96
2019-01-31T13:29:04.088Z,89.72
2019-01-31T13:30:14.023Z,89.86
2019-01-31T13:31:23.952Z,90.72
2019-01-31T13:32:33.770Z,90.81
2019-01-31T13:33:46.401Z,90.91
2019-01-31T13:34:56.350Z,91.57
2019-01-31T13:36:06.034Z,90.48
2019-01-31T13:37:15.968Z,90.62
2019-01-31T13:38:25.905Z,91.09
2019-01-31T13:39:35.590Z,91.28
2019-01-31T13:40:45.519Z,91.09
2019-01-31T13:41:55.281Z,91
2019-01-31T13:43:05.213Z,90.91
2019-01-31T13:44:14.391Z,91.28
2019-01-31T13:45:23.573Z,90.72
2019-01-31T13:46:33.271Z,91
2019-01-31T13:47:42.940Z,91.66
2019-01-31T13:48:52.872Z,91.38
2019-01-31T13:50:02.578Z,90.81
2019-01-31T13:51:12.279Z,91.57
2019-01-31T13:52:21.964Z,91.38
2019-01-31T13:53:31.893Z,91.47
2019-01-31T13:54:41.822Z,91.66
2019-01-31T13:55:51.494Z,91.66
2019-01-31T13:57:01.178Z,91.85
2019-01-31T13:58:12.755Z,91.95
2019-01-31T13:59:21.947Z,91.28
2019-01-31T14:00:31.137Z,92.14
2019-01-31T14:01:41.070Z,91.85
2019-01-31T14:02:51.003Z,91.95
2019-01-31T14:04:00.443Z,92.14
2019-01-31T14:05:09.893Z,91.95
2019-01-31T14:06:19.322Z,91.66
2019-01-31T14:07:30.147Z,91.47
2019-01-31T14:08:40.082Z,92.33
2019-01-31T14:09:50.121Z,92.76
2019-01-31T14:10:59.803Z,92.38
2019-01-31T14:12:09.732Z,92.04
2019-01-31T14:13:18.910Z,92.47
2019-01-31T14:14:28.346Z,92.71
2019-01-31T14:15:38.294Z,93.04
2019-01-31T14:16:50.168Z,92.66
2019-01-31T14:18:00.093Z,92.57
2019-01-31T14:19:09.521Z,93.13
2019-01-31T14:20:19.203Z,92.76
2019-01-31T14:21:28.400Z,93.32
2019-01-31T14:22:45.480Z,93.13
2019-01-31T14:23:55.152Z,93.37
2019-01-31T14:25:04.906Z,93.75
2019-01-31T14:26:14.129Z,93.84
2019-01-31T14:27:23.812Z,93.89
2019-01-31T14:28:33.498Z,94.08
2019-01-31T14:29:42.672Z,94.23
2019-01-31T14:30:52.613Z,94.6
2019-01-31T14:32:02.541Z,94.03
2019-01-31T14:33:12.215Z,94.13
2019-01-31T14:34:22.144Z,94.32
2019-01-31T14:35:31.823Z,94.32
2019-01-31T14:36:41.764Z,94.42
2019-01-31T14:37:51.696Z,94.51
2019-01-31T14:39:03.912Z,94.46
2019-01-31T14:40:13.836Z,94.18
2019-01-31T14:41:23.535Z,94.37
2019-01-31T14:42:32.981Z,94.18
2019-01-31T14:43:42.204Z,94.74
2019-01-31T14:44:53.711Z,94.74
2019-01-31T14:46:03.392Z,94.6
2019-01-31T14:47:12.915Z,94.7
2019-01-31T14:48:22.351Z,94.98
2019-01-31T14:49:32.078Z,95.17
2019-01-31T14:50:41.285Z,95.07
2019-01-31T14:51:51.216Z,95.46
2019-01-31T14:53:00.892Z,96.03
2019-01-31T14:54:10.592Z,96.12
2019-01-31T14:55:20.660Z,96.22
2019-01-31T14:56:30.347Z,96.03
2019-01-31T14:57:39.792Z,95.74
2019-01-31T14:58:49.228Z,96.03
2019-01-31T14:59:59.233Z,96.41
2019-01-31T15:01:08.921Z,96.69
2019-01-31T15:02:18.619Z,97.07
2019-01-31T15:03:28.307Z,96.88